createdAt,value
2023-01-13T00:07:46.822Z,8.9
2023-01-13T00:17:48.857Z,9
2023-01-13T00:27:50.504Z,9
2023-01-13T00:37:52.610Z,8.9
2023-01-13T00:47:54.609Z,8.9
2023-01-13T00:57:57.215Z,8.9
2023-01-13T01:07:59.116Z,9
2023-01-13T01:18:01.173Z,9.1
2023-01-13T01:28:03.295Z,9
2023-01-13T01:38:05.640Z,9
2023-01-13T01:48:08.253Z,9
2023-01-13T01:58:10.727Z,9.1
2023-01-13T02:08:12.818Z,8.8
2023-01-13T02:18:14.926Z,8.7
2023-01-13T02:28:17.292Z,8.7
2023-01-13T02:38:19.848Z,8.5
2023-01-13T02:48:21.879Z,8.6
2023-01-13T02:58:23.659Z,8.6
2023-01-13T03:08:25.635Z,8.6
2023-01-13T03:18:27.801Z,8.4
2023-01-13T03:28:29.727Z,8.3
2023-01-13T03:38:31.938Z,8.3
2023-01-13T03:48:33.767Z,7.9
2023-01-13T03:58:35.531Z,7.7
2023-01-13T04:08:38.163Z,7.7
2023-01-13T04:18:40.025Z,7.7
2023-01-13T04:28:42.197Z,7.7
2023-01-13T04:38:44.508Z,7.6
2023-01-13T04:48:46.981Z,7.6
2023-01-13T04:58:48.722Z,7.7
2023-01-13T05:08:51.132Z,7.7
2023-01-13T05:18:53.315Z,7.6
2023-01-13T05:28:55.663Z,7.5
2023-01-13T05:38:57.639Z,7.5
2023-01-13T05:48:59.739Z,7.5
2023-01-13T05:59:01.737Z,7.4
2023-01-13T06:09:03.588Z,7.5
2023-01-13T06:19:06.040Z,7.5
2023-01-13T06:29:08.635Z,7.4
2023-01-13T06:39:10.622Z,7.4
2023-01-13T06:49:12.334Z,7.4
2023-01-13T06:59:14.295Z,7.2
2023-01-13T07:09:16.473Z,7.2
2023-01-13T07:19:18.301Z,7.2
2023-01-13T07:29:20.015Z,7.2
2023-01-13T07:39:22.539Z,7.1
2023-01-13T07:49:24.323Z,7.1
2023-01-13T07:59:26.216Z,7.2
2023-01-13T08:09:27.988Z,7.4
2023-01-13T08:19:30.459Z,7.4
2023-01-13T08:29:32.632Z,7.6
2023-01-13T08:39:35.265Z,7.6
2023-01-13T08:49:37.657Z,7.6
2023-01-13T08:59:40.148Z,7.7
2023-01-13T09:09:42.721Z,7.7
2023-01-13T09:19:44.900Z,7.7
2023-01-13T09:29:46.927Z,7.8
2023-01-13T09:39:48.694Z,7.7
2023-01-13T09:49:50.994Z,7.7
2023-01-13T09:59:53.046Z,7.9
2023-01-13T10:09:54.786Z,8.1
2023-01-13T10:19:57.008Z,8.2
2023-01-13T10:29:58.994Z,8.2
2023-01-13T10:40:01.475Z,8.4
2023-01-13T10:50:03.428Z,8.5
2023-01-13T11:00:05.525Z,8.5
2023-01-13T11:10:07.257Z,8.4
2023-01-13T11:20:09.877Z,8.2
2023-01-13T11:30:11.655Z,7.8
2023-01-13T11:40:13.742Z,8.1
2023-01-13T11:50:15.882Z,8.2
2023-01-13T12:00:18.080Z,7.6
2023-01-13T12:20:22.342Z,7.4
2023-01-13T12:30:24.561Z,6.4
2023-01-13T12:40:27.119Z,6.8
2023-01-13T12:50:29.305Z,7.4
2023-01-13T13:00:31.369Z,7.7
2023-01-13T13:10:33.741Z,7.9
2023-01-13T13:20:36.290Z,8
2023-01-13T13:40:41.107Z,7.9
2023-01-13T13:50:43.078Z,5.4
2023-01-13T14:00:44.768Z,5.2
2023-01-13T14:10:46.981Z,6
2023-01-13T14:20:49.041Z,6.8
2023-01-13T14:40:53.265Z,6.3
2023-01-13T15:31:04.056Z,6.5
2023-01-13T15:41:06.074Z,6.6
2023-01-13T16:21:14.135Z,6.8
2023-01-13T16:51:20.140Z,6.9
2023-01-13T17:01:22.355Z,7
2023-01-13T17:41:31.379Z,7.2
2023-01-13T17:51:33.149Z,7.2
2023-01-13T18:01:35.424Z,7.1
2023-01-13T18:11:37.251Z,6.8
2023-01-13T18:21:39.837Z,6.7
2023-01-13T18:31:42.270Z,6.7
2023-01-13T18:41:44.064Z,6.9
2023-01-13T18:51:45.995Z,6.8
2023-01-13T19:01:47.775Z,6.9
2023-01-13T19:11:50.053Z,7.1
2023-01-13T19:31:54.768Z,7.2
2023-01-13T19:41:56.829Z,6.9
2023-01-13T19:42:03.903Z,6.9
2023-01-13T19:52:05.597Z,6.5
2023-01-13T20:02:07.910Z,6.5
2023-01-13T20:12:10.128Z,6.7
2023-01-13T20:22:11.859Z,6.9
2023-01-13T20:32:13.825Z,6.9
2023-01-13T20:42:16.446Z,7
2023-01-13T20:52:18.338Z,7
2023-01-13T21:02:20.140Z,7.1
2023-01-13T21:22:24.178Z,6.9
2023-01-13T21:32:26.442Z,6.7
2023-01-13T21:52:30.991Z,6.5
2023-01-13T22:02:33.365Z,6.5
2023-01-13T22:12:35.351Z,6.6
2023-01-13T22:32:40.165Z,6.4
2023-01-13T22:42:42.539Z,6.3
2023-01-13T22:52:44.203Z,6.6
2023-01-13T23:02:46.455Z,6.6
2023-01-13T23:12:48.992Z,6.8
2023-01-13T23:22:50.802Z,6.7
2023-01-13T23:32:52.742Z,6.8
2023-01-13T23:42:55.133Z,6.9
2023-01-13T23:52:57.710Z,6.8
